sensor_id;sensor_type;location;lat;lon;timestamp;P1;durP1;ratioP1;P2;durP2;ratioP2
40781;SDS011;26493;51.938;7.626;2022-07-10T00:02:15;17.10;;;6.47;;
40781;SDS011;26493;51.938;7.626;2022-07-10T00:04:41;16.00;;;6.70;;
40781;SDS011;26493;51.938;7.626;2022-07-10T00:07:08;14.68;;;6.53;;
40781;SDS011;26493;51.938;7.626;2022-07-10T00:09:34;16.23;;;7.32;;
40781;SDS011;26493;51.938;7.626;2022-07-10T00:12:00;14.27;;;6.22;;
40781;SDS011;26493;51.938;7.626;2022-07-10T00:14:26;14.75;;;6.55;;
40781;SDS011;26493;51.938;7.626;2022-07-10T00:16:52;16.80;;;7.00;;
40781;SDS011;26493;51.938;7.626;2022-07-10T00:19:18;14.05;;;6.40;;
40781;SDS011;26493;51.938;7.626;2022-07-10T00:21:44;16.20;;;6.10;;
40781;SDS011;26493;51.938;7.626;2022-07-10T00:24:10;15.93;;;6.35;;
40781;SDS011;26493;51.938;7.626;2022-07-10T00:26:36;16.23;;;6.50;;
40781;SDS011;26493;51.938;7.626;2022-07-10T00:29:02;13.98;;;6.25;;
40781;SDS011;26493;51.938;7.626;2022-07-10T00:31:28;15.45;;;6.97;;
40781;SDS011;26493;51.938;7.626;2022-07-10T00:33:54;18.05;;;6.40;;
40781;SDS011;26493;51.938;7.626;2022-07-10T00:36:20;15.43;;;6.75;;
40781;SDS011;26493;51.938;7.626;2022-07-10T00:38:46;14.88;;;6.60;;
40781;SDS011;26493;51.938;7.626;2022-07-10T00:41:12;17.75;;;6.78;;
40781;SDS011;26493;51.938;7.626;2022-07-10T00:43:51;18.13;;;6.70;;
40781;SDS011;26493;51.938;7.626;2022-07-10T00:46:18;17.13;;;6.47;;
40781;SDS011;26493;51.938;7.626;2022-07-10T00:48:50;16.45;;;6.10;;
40781;SDS011;26493;51.938;7.626;2022-07-10T00:51:17;14.30;;;6.50;;
40781;SDS011;26493;51.938;7.626;2022-07-10T00:53:44;15.20;;;6.95;;
40781;SDS011;26493;51.938;7.626;2022-07-10T00:56:11;15.25;;;6.35;;
40781;SDS011;26493;51.938;7.626;2022-07-10T00:58:37;17.10;;;6.35;;
40781;SDS011;26493;51.938;7.626;2022-07-10T01:01:06;16.13;;;6.65;;
40781;SDS011;26493;51.938;7.626;2022-07-10T01:03:32;13.88;;;6.30;;
40781;SDS011;26493;51.938;7.626;2022-07-10T01:05:58;16.35;;;6.80;;
40781;SDS011;26493;51.938;7.626;2022-07-10T01:08:25;16.63;;;6.53;;
40781;SDS011;26493;51.938;7.626;2022-07-10T01:10:51;17.13;;;6.28;;
40781;SDS011;26493;51.938;7.626;2022-07-10T01:13:17;15.38;;;6.30;;
40781;SDS011;26493;51.938;7.626;2022-07-10T01:15:43;17.77;;;7.85;;
40781;SDS011;26493;51.938;7.626;2022-07-10T01:18:10;16.00;;;6.50;;
40781;SDS011;26493;51.938;7.626;2022-07-10T01:20:36;13.75;;;6.13;;
40781;SDS011;26493;51.938;7.626;2022-07-10T01:23:02;19.70;;;6.82;;
40781;SDS011;26493;51.938;7.626;2022-07-10T01:25:28;16.85;;;6.50;;
40781;SDS011;26493;51.938;7.626;2022-07-10T01:27:54;15.13;;;6.60;;
40781;SDS011;26493;51.938;7.626;2022-07-10T01:30:20;15.40;;;6.82;;
40781;SDS011;26493;51.938;7.626;2022-07-10T01:32:46;17.17;;;6.90;;
40781;SDS011;26493;51.938;7.626;2022-07-10T01:35:13;17.77;;;6.97;;
40781;SDS011;26493;51.938;7.626;2022-07-10T01:37:39;15.32;;;6.70;;
40781;SDS011;26493;51.938;7.626;2022-07-10T01:40:06;18.77;;;6.95;;
40781;SDS011;26493;51.938;7.626;2022-07-10T01:42:32;17.33;;;6.30;;
40781;SDS011;26493;51.938;7.626;2022-07-10T01:44:58;15.18;;;6.30;;
40781;SDS011;26493;51.938;7.626;2022-07-10T01:47:24;18.70;;;6.10;;
40781;SDS011;26493;51.938;7.626;2022-07-10T01:49:52;15.82;;;6.50;;
40781;SDS011;26493;51.938;7.626;2022-07-10T01:52:19;16.15;;;7.00;;
40781;SDS011;26493;51.938;7.626;2022-07-10T01:54:45;18.70;;;6.60;;
40781;SDS011;26493;51.938;7.626;2022-07-10T01:57:11;17.55;;;6.22;;
40781;SDS011;26493;51.938;7.626;2022-07-10T01:59:38;20.83;;;6.90;;
40781;SDS011;26493;51.938;7.626;2022-07-10T02:02:04;15.10;;;6.32;;
40781;SDS011;26493;51.938;7.626;2022-07-10T02:04:30;14.00;;;6.38;;
40781;SDS011;26493;51.938;7.626;2022-07-10T02:07:05;14.23;;;5.95;;
40781;SDS011;26493;51.938;7.626;2022-07-10T02:09:32;17.38;;;6.35;;
40781;SDS011;26493;51.938;7.626;2022-07-10T02:11:58;16.00;;;6.65;;
40781;SDS011;26493;51.938;7.626;2022-07-10T02:14:25;15.98;;;6.30;;
40781;SDS011;26493;51.938;7.626;2022-07-10T02:16:51;16.98;;;6.20;;
40781;SDS011;26493;51.938;7.626;2022-07-10T02:19:17;17.17;;;6.30;;
40781;SDS011;26493;51.938;7.626;2022-07-10T02:21:43;15.90;;;6.18;;
40781;SDS011;26493;51.938;7.626;2022-07-10T02:24:11;16.38;;;6.28;;
40781;SDS011;26493;51.938;7.626;2022-07-10T02:26:37;16.00;;;6.38;;
40781;SDS011;26493;51.938;7.626;2022-07-10T02:29:03;17.35;;;6.30;;
40781;SDS011;26493;51.938;7.626;2022-07-10T02:31:29;17.10;;;6.57;;
40781;SDS011;26493;51.938;7.626;2022-07-10T02:33:55;14.02;;;6.40;;
40781;SDS011;26493;51.938;7.626;2022-07-10T02:36:21;17.55;;;6.10;;
40781;SDS011;26493;51.938;7.626;2022-07-10T02:38:47;14.82;;;6.35;;
40781;SDS011;26493;51.938;7.626;2022-07-10T02:41:13;15.27;;;6.70;;
40781;SDS011;26493;51.938;7.626;2022-07-10T02:43:39;15.70;;;6.38;;
40781;SDS011;26493;51.938;7.626;2022-07-10T02:46:05;16.98;;;6.47;;
40781;SDS011;26493;51.938;7.626;2022-07-10T02:48:31;15.00;;;6.47;;
40781;SDS011;26493;51.938;7.626;2022-07-10T02:50:57;16.08;;;6.70;;
40781;SDS011;26493;51.938;7.626;2022-07-10T02:53:23;15.35;;;7.07;;
40781;SDS011;26493;51.938;7.626;2022-07-10T02:55:49;15.05;;;6.50;;
40781;SDS011;26493;51.938;7.626;2022-07-10T02:58:15;18.10;;;6.72;;
40781;SDS011;26493;51.938;7.626;2022-07-10T03:00:42;20.02;;;8.57;;
40781;SDS011;26493;51.938;7.626;2022-07-10T03:03:08;16.10;;;6.65;;
40781;SDS011;26493;51.938;7.626;2022-07-10T03:05:35;18.17;;;7.25;;
40781;SDS011;26493;51.938;7.626;2022-07-10T03:08:00;18.92;;;6.95;;
40781;SDS011;26493;51.938;7.626;2022-07-10T03:10:26;18.33;;;6.90;;
40781;SDS011;26493;51.938;7.626;2022-07-10T03:12:52;21.05;;;6.93;;
40781;SDS011;26493;51.938;7.626;2022-07-10T03:15:18;16.35;;;7.03;;
40781;SDS011;26493;51.938;7.626;2022-07-10T03:17:44;19.25;;;6.55;;
40781;SDS011;26493;51.938;7.626;2022-07-10T03:20:10;15.25;;;6.63;;
40781;SDS011;26493;51.938;7.626;2022-07-10T03:22:37;15.93;;;6.55;;
40781;SDS011;26493;51.938;7.626;2022-07-10T03:25:03;17.45;;;6.57;;
40781;SDS011;26493;51.938;7.626;2022-07-10T03:27:29;16.67;;;6.82;;
40781;SDS011;26493;51.938;7.626;2022-07-10T03:29:55;16.13;;;6.65;;
40781;SDS011;26493;51.938;7.626;2022-07-10T03:32:21;18.67;;;6.70;;
40781;SDS011;26493;51.938;7.626;2022-07-10T03:34:47;17.23;;;6.85;;
40781;SDS011;26493;51.938;7.626;2022-07-10T03:37:13;16.92;;;7.53;;
40781;SDS011;26493;51.938;7.626;2022-07-10T03:39:39;17.10;;;6.40;;
40781;SDS011;26493;51.938;7.626;2022-07-10T03:42:06;17.20;;;6.30;;
40781;SDS011;26493;51.938;7.626;2022-07-10T03:44:32;15.00;;;6.13;;
40781;SDS011;26493;51.938;7.626;2022-07-10T03:46:58;15.38;;;6.57;;
40781;SDS011;26493;51.938;7.626;2022-07-10T03:49:25;17.58;;;6.57;;
40781;SDS011;26493;51.938;7.626;2022-07-10T03:51:51;19.45;;;7.05;;
40781;SDS011;26493;51.938;7.626;2022-07-10T03:54:17;14.75;;;6.68;;
40781;SDS011;26493;51.938;7.626;2022-07-10T03:56:43;16.80;;;7.05;;
40781;SDS011;26493;51.938;7.626;2022-07-10T03:59:27;18.60;;;7.03;;
40781;SDS011;26493;51.938;7.626;2022-07-10T04:01:53;14.90;;;7.03;;
40781;SDS011;26493;51.938;7.626;2022-07-10T04:04:20;17.52;;;6.80;;
40781;SDS011;26493;51.938;7.626;2022-07-10T04:06:46;16.13;;;7.13;;
40781;SDS011;26493;51.938;7.626;2022-07-10T04:09:12;18.73;;;7.05;;
40781;SDS011;26493;51.938;7.626;2022-07-10T04:11:38;19.77;;;7.63;;
40781;SDS011;26493;51.938;7.626;2022-07-10T04:14:04;15.10;;;6.80;;
40781;SDS011;26493;51.938;7.626;2022-07-10T04:16:30;16.15;;;7.00;;
40781;SDS011;26493;51.938;7.626;2022-07-10T04:18:56;16.15;;;7.35;;
40781;SDS011;26493;51.938;7.626;2022-07-10T04:21:22;16.02;;;7.25;;
40781;SDS011;26493;51.938;7.626;2022-07-10T04:23:48;17.05;;;7.07;;
40781;SDS011;26493;51.938;7.626;2022-07-10T04:26:14;17.13;;;6.88;;
40781;SDS011;26493;51.938;7.626;2022-07-10T04:28:40;17.73;;;7.28;;
40781;SDS011;26493;51.938;7.626;2022-07-10T04:31:06;16.35;;;7.03;;
40781;SDS011;26493;51.938;7.626;2022-07-10T04:33:32;17.10;;;7.38;;
40781;SDS011;26493;51.938;7.626;2022-07-10T04:35:59;15.57;;;6.78;;
40781;SDS011;26493;51.938;7.626;2022-07-10T04:38:25;19.20;;;6.82;;
40781;SDS011;26493;51.938;7.626;2022-07-10T04:40:51;15.60;;;7.15;;
40781;SDS011;26493;51.938;7.626;2022-07-10T04:43:17;14.70;;;6.65;;
40781;SDS011;26493;51.938;7.626;2022-07-10T04:45:43;14.88;;;7.00;;
40781;SDS011;26493;51.938;7.626;2022-07-10T04:48:10;16.25;;;7.22;;
40781;SDS011;26493;51.938;7.626;2022-07-10T04:50:37;18.50;;;7.10;;
40781;SDS011;26493;51.938;7.626;2022-07-10T04:53:03;15.65;;;7.10;;
40781;SDS011;26493;51.938;7.626;2022-07-10T04:55:29;18.73;;;7.95;;
40781;SDS011;26493;51.938;7.626;2022-07-10T04:57:55;17.85;;;6.90;;
40781;SDS011;26493;51.938;7.626;2022-07-10T05:00:21;16.60;;;6.88;;
40781;SDS011;26493;51.938;7.626;2022-07-10T05:02:47;14.75;;;6.82;;
40781;SDS011;26493;51.938;7.626;2022-07-10T05:05:13;15.98;;;7.30;;
40781;SDS011;26493;51.938;7.626;2022-07-10T05:07:39;14.95;;;6.65;;
40781;SDS011;26493;51.938;7.626;2022-07-10T05:10:05;16.42;;;7.40;;
40781;SDS011;26493;51.938;7.626;2022-07-10T05:12:31;18.77;;;7.43;;
40781;SDS011;26493;51.938;7.626;2022-07-10T05:14:57;18.40;;;6.90;;
40781;SDS011;26493;51.938;7.626;2022-07-10T05:17:25;16.00;;;6.85;;
40781;SDS011;26493;51.938;7.626;2022-07-10T05:19:52;16.52;;;7.50;;
40781;SDS011;26493;51.938;7.626;2022-07-10T05:24:46;17.63;;;7.00;;
40781;SDS011;26493;51.938;7.626;2022-07-10T05:27:12;14.90;;;6.63;;
40781;SDS011;26493;51.938;7.626;2022-07-10T05:29:38;17.50;;;7.28;;
40781;SDS011;26493;51.938;7.626;2022-07-10T05:32:04;18.63;;;7.25;;
40781;SDS011;26493;51.938;7.626;2022-07-10T05:34:30;16.52;;;6.90;;
40781;SDS011;26493;51.938;7.626;2022-07-10T05:36:56;17.98;;;7.18;;
40781;SDS011;26493;51.938;7.626;2022-07-10T05:39:22;19.08;;;7.03;;
40781;SDS011;26493;51.938;7.626;2022-07-10T05:44:18;18.55;;;7.03;;
40781;SDS011;26493;51.938;7.626;2022-07-10T05:46:45;22.70;;;7.18;;
40781;SDS011;26493;51.938;7.626;2022-07-10T05:49:11;17.95;;;7.57;;
40781;SDS011;26493;51.938;7.626;2022-07-10T05:51:37;17.92;;;7.07;;
40781;SDS011;26493;51.938;7.626;2022-07-10T05:54:03;16.02;;;7.30;;
40781;SDS011;26493;51.938;7.626;2022-07-10T05:56:30;19.88;;;7.75;;
40781;SDS011;26493;51.938;7.626;2022-07-10T05:58:56;25.48;;;10.25;;
40781;SDS011;26493;51.938;7.626;2022-07-10T06:01:22;24.35;;;8.52;;
40781;SDS011;26493;51.938;7.626;2022-07-10T06:03:49;17.58;;;7.60;;
40781;SDS011;26493;51.938;7.626;2022-07-10T06:06:15;17.77;;;7.20;;
40781;SDS011;26493;51.938;7.626;2022-07-10T06:08:41;18.08;;;7.40;;
40781;SDS011;26493;51.938;7.626;2022-07-10T06:11:08;16.08;;;7.60;;
40781;SDS011;26493;51.938;7.626;2022-07-10T06:13:34;17.10;;;7.57;;
40781;SDS011;26493;51.938;7.626;2022-07-10T06:16:00;20.08;;;8.02;;
40781;SDS011;26493;51.938;7.626;2022-07-10T06:18:26;16.60;;;7.53;;
40781;SDS011;26493;51.938;7.626;2022-07-10T06:20:52;15.55;;;8.18;;
40781;SDS011;26493;51.938;7.626;2022-07-10T06:23:18;18.17;;;8.57;;
40781;SDS011;26493;51.938;7.626;2022-07-10T06:25:44;16.80;;;8.55;;
40781;SDS011;26493;51.938;7.626;2022-07-10T06:28:10;19.05;;;8.60;;
40781;SDS011;26493;51.938;7.626;2022-07-10T06:30:36;21.05;;;8.90;;
40781;SDS011;26493;51.938;7.626;2022-07-10T06:33:01;16.20;;;7.90;;
40781;SDS011;26493;51.938;7.626;2022-07-10T06:35:27;17.38;;;8.25;;
40781;SDS011;26493;51.938;7.626;2022-07-10T06:37:53;16.90;;;8.18;;
40781;SDS011;26493;51.938;7.626;2022-07-10T06:40:20;16.67;;;8.45;;
40781;SDS011;26493;51.938;7.626;2022-07-10T06:42:46;16.88;;;8.32;;
40781;SDS011;26493;51.938;7.626;2022-07-10T06:45:12;19.63;;;8.10;;
40781;SDS011;26493;51.938;7.626;2022-07-10T06:47:38;18.50;;;8.38;;
40781;SDS011;26493;51.938;7.626;2022-07-10T06:50:27;17.93;;;8.77;;
40781;SDS011;26493;51.938;7.626;2022-07-10T06:52:57;19.08;;;8.75;;
40781;SDS011;26493;51.938;7.626;2022-07-10T06:55:24;15.52;;;7.50;;
40781;SDS011;26493;51.938;7.626;2022-07-10T06:57:51;18.75;;;8.50;;
40781;SDS011;26493;51.938;7.626;2022-07-10T07:00:17;18.08;;;8.25;;
40781;SDS011;26493;51.938;7.626;2022-07-10T07:02:43;18.73;;;8.60;;
40781;SDS011;26493;51.938;7.626;2022-07-10T07:05:09;17.60;;;8.23;;
40781;SDS011;26493;51.938;7.626;2022-07-10T07:07:35;18.48;;;8.57;;
40781;SDS011;26493;51.938;7.626;2022-07-10T07:10:02;15.77;;;7.40;;
40781;SDS011;26493;51.938;7.626;2022-07-10T07:12:28;18.60;;;7.50;;
40781;SDS011;26493;51.938;7.626;2022-07-10T07:14:54;29.48;;;9.23;;
40781;SDS011;26493;51.938;7.626;2022-07-10T07:17:20;18.05;;;7.22;;
40781;SDS011;26493;51.938;7.626;2022-07-10T07:19:59;18.70;;;7.40;;
40781;SDS011;26493;51.938;7.626;2022-07-10T07:22:44;16.83;;;8.02;;
40781;SDS011;26493;51.938;7.626;2022-07-10T07:25:29;17.98;;;7.90;;
40781;SDS011;26493;51.938;7.626;2022-07-10T07:27:55;16.60;;;7.55;;
40781;SDS011;26493;51.938;7.626;2022-07-10T07:30:21;17.25;;;7.60;;
40781;SDS011;26493;51.938;7.626;2022-07-10T07:32:47;15.75;;;7.10;;
40781;SDS011;26493;51.938;7.626;2022-07-10T07:35:14;18.52;;;7.60;;
40781;SDS011;26493;51.938;7.626;2022-07-10T07:37:41;18.20;;;7.10;;
40781;SDS011;26493;51.938;7.626;2022-07-10T07:40:08;17.23;;;7.15;;
40781;SDS011;26493;51.938;7.626;2022-07-10T07:42:35;15.88;;;7.13;;
40781;SDS011;26493;51.938;7.626;2022-07-10T07:45:01;26.65;;;9.48;;
40781;SDS011;26493;51.938;7.626;2022-07-10T07:47:27;18.25;;;7.60;;
40781;SDS011;26493;51.938;7.626;2022-07-10T07:49:53;17.40;;;7.57;;
40781;SDS011;26493;51.938;7.626;2022-07-10T07:52:19;21.08;;;7.72;;
40781;SDS011;26493;51.938;7.626;2022-07-10T07:54:45;18.08;;;7.03;;
40781;SDS011;26493;51.938;7.626;2022-07-10T07:57:11;17.13;;;7.80;;
40781;SDS011;26493;51.938;7.626;2022-07-10T07:59:37;18.20;;;7.60;;
40781;SDS011;26493;51.938;7.626;2022-07-10T08:02:04;17.77;;;7.32;;
40781;SDS011;26493;51.938;7.626;2022-07-10T08:04:31;18.90;;;7.95;;
40781;SDS011;26493;51.938;7.626;2022-07-10T08:06:57;18.42;;;7.03;;
40781;SDS011;26493;51.938;7.626;2022-07-10T08:09:23;15.23;;;6.97;;
40781;SDS011;26493;51.938;7.626;2022-07-10T08:11:49;17.35;;;7.78;;
40781;SDS011;26493;51.938;7.626;2022-07-10T08:14:15;18.50;;;7.90;;
40781;SDS011;26493;51.938;7.626;2022-07-10T08:16:41;23.65;;;7.65;;
40781;SDS011;26493;51.938;7.626;2022-07-10T08:19:07;14.65;;;7.30;;
40781;SDS011;26493;51.938;7.626;2022-07-10T08:21:33;17.27;;;7.28;;
40781;SDS011;26493;51.938;7.626;2022-07-10T08:23:59;16.30;;;7.57;;
40781;SDS011;26493;51.938;7.626;2022-07-10T08:26:26;20.27;;;7.60;;
40781;SDS011;26493;51.938;7.626;2022-07-10T08:28:52;15.75;;;7.88;;
40781;SDS011;26493;51.938;7.626;2022-07-10T08:31:18;16.42;;;7.00;;
40781;SDS011;26493;51.938;7.626;2022-07-10T08:33:44;16.13;;;6.88;;
40781;SDS011;26493;51.938;7.626;2022-07-10T08:36:11;17.13;;;6.75;;
40781;SDS011;26493;51.938;7.626;2022-07-10T08:38:37;16.80;;;7.10;;
40781;SDS011;26493;51.938;7.626;2022-07-10T08:41:04;17.85;;;6.90;;
40781;SDS011;26493;51.938;7.626;2022-07-10T08:43:30;18.63;;;7.20;;
40781;SDS011;26493;51.938;7.626;2022-07-10T08:45:56;15.93;;;6.75;;
40781;SDS011;26493;51.938;7.626;2022-07-10T08:48:24;20.40;;;8.18;;
40781;SDS011;26493;51.938;7.626;2022-07-10T08:50:53;22.65;;;8.25;;
40781;SDS011;26493;51.938;7.626;2022-07-10T08:55:48;20.33;;;8.05;;
40781;SDS011;26493;51.938;7.626;2022-07-10T08:58:14;18.50;;;7.28;;
40781;SDS011;26493;51.938;7.626;2022-07-10T09:00:41;18.25;;;7.15;;
40781;SDS011;26493;51.938;7.626;2022-07-10T09:03:07;25.02;;;7.55;;
40781;SDS011;26493;51.938;7.626;2022-07-10T09:05:33;19.60;;;7.78;;
40781;SDS011;26493;51.938;7.626;2022-07-10T09:08:00;18.15;;;7.28;;
40781;SDS011;26493;51.938;7.626;2022-07-10T09:10:27;21.63;;;8.00;;
40781;SDS011;26493;51.938;7.626;2022-07-10T09:12:54;17.92;;;6.90;;
40781;SDS011;26493;51.938;7.626;2022-07-10T09:15:21;16.98;;;7.65;;
40781;SDS011;26493;51.938;7.626;2022-07-10T09:20:32;15.30;;;7.00;;
40781;SDS011;26493;51.938;7.626;2022-07-10T09:22:59;16.75;;;7.50;;
40781;SDS011;26493;51.938;7.626;2022-07-10T09:25:35;22.50;;;7.57;;
40781;SDS011;26493;51.938;7.626;2022-07-10T09:28:01;16.75;;;7.65;;
40781;SDS011;26493;51.938;7.626;2022-07-10T09:30:31;15.57;;;7.20;;
40781;SDS011;26493;51.938;7.626;2022-07-10T09:43:42;16.60;;;7.63;;
40781;SDS011;26493;51.938;7.626;2022-07-10T09:46:09;15.05;;;6.70;;
40781;SDS011;26493;51.938;7.626;2022-07-10T09:48:35;17.90;;;6.70;;
40781;SDS011;26493;51.938;7.626;2022-07-10T09:51:01;15.50;;;6.47;;
40781;SDS011;26493;51.938;7.626;2022-07-10T09:53:27;18.75;;;6.78;;
40781;SDS011;26493;51.938;7.626;2022-07-10T09:55:54;15.50;;;7.15;;
40781;SDS011;26493;51.938;7.626;2022-07-10T09:58:22;14.30;;;6.93;;
40781;SDS011;26493;51.938;7.626;2022-07-10T10:00:52;15.10;;;6.85;;
40781;SDS011;26493;51.938;7.626;2022-07-10T10:03:20;17.45;;;6.75;;
40781;SDS011;26493;51.938;7.626;2022-07-10T10:08:16;18.40;;;7.45;;
40781;SDS011;26493;51.938;7.626;2022-07-10T10:10:45;15.63;;;7.05;;
40781;SDS011;26493;51.938;7.626;2022-07-10T10:13:12;15.35;;;6.70;;
40781;SDS011;26493;51.938;7.626;2022-07-10T10:15:39;15.27;;;6.85;;
40781;SDS011;26493;51.938;7.626;2022-07-10T10:18:05;16.55;;;6.28;;
40781;SDS011;26493;51.938;7.626;2022-07-10T10:20:32;15.23;;;6.80;;
40781;SDS011;26493;51.938;7.626;2022-07-10T10:23:09;16.20;;;7.03;;
40781;SDS011;26493;51.938;7.626;2022-07-10T10:25:36;17.85;;;7.38;;
40781;SDS011;26493;51.938;7.626;2022-07-10T10:28:04;18.35;;;6.90;;
40781;SDS011;26493;51.938;7.626;2022-07-10T10:30:31;16.38;;;7.10;;
40781;SDS011;26493;51.938;7.626;2022-07-10T10:32:57;16.13;;;6.55;;
40781;SDS011;26493;51.938;7.626;2022-07-10T10:35:43;16.48;;;7.18;;
40781;SDS011;26493;51.938;7.626;2022-07-10T10:38:12;15.98;;;6.70;;
40781;SDS011;26493;51.938;7.626;2022-07-10T10:40:38;16.75;;;7.35;;
40781;SDS011;26493;51.938;7.626;2022-07-10T10:45:46;16.05;;;7.40;;
40781;SDS011;26493;51.938;7.626;2022-07-10T10:48:13;16.15;;;7.47;;
40781;SDS011;26493;51.938;7.626;2022-07-10T10:53:22;17.95;;;7.65;;
40781;SDS011;26493;51.938;7.626;2022-07-10T10:58:26;17.05;;;8.05;;
40781;SDS011;26493;51.938;7.626;2022-07-10T11:01:02;15.52;;;7.80;;
40781;SDS011;26493;51.938;7.626;2022-07-10T11:03:28;15.60;;;7.60;;
40781;SDS011;26493;51.938;7.626;2022-07-10T11:05:54;18.98;;;7.88;;
40781;SDS011;26493;51.938;7.626;2022-07-10T11:11:36;15.38;;;7.25;;
40781;SDS011;26493;51.938;7.626;2022-07-10T11:13:48;17.13;;;7.55;;
40781;SDS011;26493;51.938;7.626;2022-07-10T11:16:15;16.42;;;6.80;;
40781;SDS011;26493;51.938;7.626;2022-07-10T11:18:41;14.82;;;6.55;;
40781;SDS011;26493;51.938;7.626;2022-07-10T11:21:08;15.25;;;7.25;;
40781;SDS011;26493;51.938;7.626;2022-07-10T11:26:10;15.13;;;7.15;;
40781;SDS011;26493;51.938;7.626;2022-07-10T11:31:14;14.23;;;6.80;;
40781;SDS011;26493;51.938;7.626;2022-07-10T11:33:41;15.73;;;7.00;;
40781;SDS011;26493;51.938;7.626;2022-07-10T11:36:15;17.45;;;7.22;;
40781;SDS011;26493;51.938;7.626;2022-07-10T11:38:42;14.95;;;7.55;;
40781;SDS011;26493;51.938;7.626;2022-07-10T11:41:12;15.40;;;6.47;;
40781;SDS011;26493;51.938;7.626;2022-07-10T11:46:13;14.93;;;7.13;;
40781;SDS011;26493;51.938;7.626;2022-07-10T11:48:40;12.75;;;6.30;;
40781;SDS011;26493;51.938;7.626;2022-07-10T11:51:18;12.68;;;5.97;;
40781;SDS011;26493;51.938;7.626;2022-07-10T11:54:01;12.10;;;6.30;;
40781;SDS011;26493;51.938;7.626;2022-07-10T11:56:28;12.75;;;6.97;;
40781;SDS011;26493;51.938;7.626;2022-07-10T11:58:58;13.25;;;7.30;;
40781;SDS011;26493;51.938;7.626;2022-07-10T12:01:24;12.80;;;7.43;;
40781;SDS011;26493;51.938;7.626;2022-07-10T12:04:04;13.18;;;7.40;;
40781;SDS011;26493;51.938;7.626;2022-07-10T12:06:31;14.30;;;9.38;;
40781;SDS011;26493;51.938;7.626;2022-07-10T12:09:04;14.05;;;9.20;;
40781;SDS011;26493;51.938;7.626;2022-07-10T12:11:30;14.30;;;9.43;;
40781;SDS011;26493;51.938;7.626;2022-07-10T12:14:10;13.85;;;8.88;;
40781;SDS011;26493;51.938;7.626;2022-07-10T12:16:37;14.52;;;8.68;;
40781;SDS011;26493;51.938;7.626;2022-07-10T12:19:05;14.20;;;8.60;;
40781;SDS011;26493;51.938;7.626;2022-07-10T12:21:31;14.55;;;8.75;;
40781;SDS011;26493;51.938;7.626;2022-07-10T12:23:58;14.73;;;9.30;;
40781;SDS011;26493;51.938;7.626;2022-07-10T12:26:36;14.90;;;9.75;;
40781;SDS011;26493;51.938;7.626;2022-07-10T12:29:03;14.52;;;9.05;;
40781;SDS011;26493;51.938;7.626;2022-07-10T12:31:30;14.98;;;8.98;;
40781;SDS011;26493;51.938;7.626;2022-07-10T12:34:00;14.50;;;9.02;;
40781;SDS011;26493;51.938;7.626;2022-07-10T12:36:43;14.10;;;9.13;;
40781;SDS011;26493;51.938;7.626;2022-07-10T12:39:09;14.02;;;9.10;;
40781;SDS011;26493;51.938;7.626;2022-07-10T12:41:52;14.98;;;8.70;;
40781;SDS011;26493;51.938;7.626;2022-07-10T12:47:05;14.77;;;9.73;;
40781;SDS011;26493;51.938;7.626;2022-07-10T12:55:16;14.40;;;10.27;;
40781;SDS011;26493;51.938;7.626;2022-07-10T13:00:13;15.85;;;12.73;;
40781;SDS011;26493;51.938;7.626;2022-07-10T13:02:39;15.32;;;11.80;;
40781;SDS011;26493;51.938;7.626;2022-07-10T13:05:06;14.75;;;11.15;;
40781;SDS011;26493;51.938;7.626;2022-07-10T13:07:33;14.63;;;10.60;;
40781;SDS011;26493;51.938;7.626;2022-07-10T13:10:00;16.15;;;11.07;;
40781;SDS011;26493;51.938;7.626;2022-07-10T13:12:26;15.40;;;10.82;;
40781;SDS011;26493;51.938;7.626;2022-07-10T13:14:52;14.50;;;10.38;;
40781;SDS011;26493;51.938;7.626;2022-07-10T13:17:19;18.60;;;16.80;;
40781;SDS011;26493;51.938;7.626;2022-07-10T13:19:45;19.75;;;17.80;;
40781;SDS011;26493;51.938;7.626;2022-07-10T13:22:11;17.83;;;16.02;;
40781;SDS011;26493;51.938;7.626;2022-07-10T13:24:37;18.27;;;16.38;;
40781;SDS011;26493;51.938;7.626;2022-07-10T13:27:04;16.40;;;14.60;;
40781;SDS011;26493;51.938;7.626;2022-07-10T13:29:31;16.13;;;13.85;;
40781;SDS011;26493;51.938;7.626;2022-07-10T13:31:57;15.10;;;12.07;;
40781;SDS011;26493;51.938;7.626;2022-07-10T13:34:23;14.90;;;11.38;;
40781;SDS011;26493;51.938;7.626;2022-07-10T13:36:49;15.35;;;11.77;;
40781;SDS011;26493;51.938;7.626;2022-07-10T13:39:16;14.90;;;10.75;;
40781;SDS011;26493;51.938;7.626;2022-07-10T13:41:42;14.88;;;10.35;;
40781;SDS011;26493;51.938;7.626;2022-07-10T13:44:08;14.60;;;10.77;;
40781;SDS011;26493;51.938;7.626;2022-07-10T13:46:34;14.75;;;10.50;;
40781;SDS011;26493;51.938;7.626;2022-07-10T13:49:02;14.75;;;10.40;;
40781;SDS011;26493;51.938;7.626;2022-07-10T13:51:28;14.90;;;11.00;;
40781;SDS011;26493;51.938;7.626;2022-07-10T13:53:54;15.18;;;10.85;;
40781;SDS011;26493;51.938;7.626;2022-07-10T13:56:20;14.43;;;10.68;;
40781;SDS011;26493;51.938;7.626;2022-07-10T13:58:47;15.23;;;10.45;;
40781;SDS011;26493;51.938;7.626;2022-07-10T14:01:13;15.25;;;10.10;;
40781;SDS011;26493;51.938;7.626;2022-07-10T14:03:39;14.70;;;10.32;;
40781;SDS011;26493;51.938;7.626;2022-07-10T14:06:05;14.90;;;10.50;;
40781;SDS011;26493;51.938;7.626;2022-07-10T14:08:31;14.38;;;10.20;;
40781;SDS011;26493;51.938;7.626;2022-07-10T14:10:57;15.18;;;9.70;;
40781;SDS011;26493;51.938;7.626;2022-07-10T14:13:23;14.50;;;9.52;;
40781;SDS011;26493;51.938;7.626;2022-07-10T14:15:49;13.70;;;8.13;;
40781;SDS011;26493;51.938;7.626;2022-07-10T14:18:15;13.65;;;7.25;;
40781;SDS011;26493;51.938;7.626;2022-07-10T14:20:59;13.07;;;7.10;;
40781;SDS011;26493;51.938;7.626;2022-07-10T14:23:28;13.23;;;7.07;;
40781;SDS011;26493;51.938;7.626;2022-07-10T14:25:54;14.00;;;7.07;;
40781;SDS011;26493;51.938;7.626;2022-07-10T14:28:21;13.73;;;7.07;;
40781;SDS011;26493;51.938;7.626;2022-07-10T14:30:48;15.25;;;7.40;;
40781;SDS011;26493;51.938;7.626;2022-07-10T14:33:15;15.13;;;7.18;;
40781;SDS011;26493;51.938;7.626;2022-07-10T14:35:42;13.32;;;7.10;;
40781;SDS011;26493;51.938;7.626;2022-07-10T14:38:08;12.15;;;6.43;;
40781;SDS011;26493;51.938;7.626;2022-07-10T14:40:34;12.68;;;6.82;;
40781;SDS011;26493;51.938;7.626;2022-07-10T14:43:00;13.35;;;7.03;;
40781;SDS011;26493;51.938;7.626;2022-07-10T14:45:26;14.65;;;8.45;;
40781;SDS011;26493;51.938;7.626;2022-07-10T14:47:52;15.05;;;8.80;;
40781;SDS011;26493;51.938;7.626;2022-07-10T14:50:20;15.00;;;9.25;;
40781;SDS011;26493;51.938;7.626;2022-07-10T14:52:46;14.50;;;9.00;;
40781;SDS011;26493;51.938;7.626;2022-07-10T14:55:12;14.93;;;9.23;;
40781;SDS011;26493;51.938;7.626;2022-07-10T14:57:38;14.57;;;8.50;;
40781;SDS011;26493;51.938;7.626;2022-07-10T15:00:05;14.75;;;8.38;;
40781;SDS011;26493;51.938;7.626;2022-07-10T15:02:31;15.05;;;8.32;;
40781;SDS011;26493;51.938;7.626;2022-07-10T15:04:57;13.90;;;7.35;;
40781;SDS011;26493;51.938;7.626;2022-07-10T15:07:23;14.13;;;7.78;;
40781;SDS011;26493;51.938;7.626;2022-07-10T15:09:49;14.50;;;7.60;;
40781;SDS011;26493;51.938;7.626;2022-07-10T15:12:15;16.08;;;8.10;;
40781;SDS011;26493;51.938;7.626;2022-07-10T15:14:41;16.38;;;8.77;;
40781;SDS011;26493;51.938;7.626;2022-07-10T15:17:07;15.45;;;8.50;;
40781;SDS011;26493;51.938;7.626;2022-07-10T15:19:33;15.20;;;7.80;;
40781;SDS011;26493;51.938;7.626;2022-07-10T15:21:59;16.23;;;7.85;;
40781;SDS011;26493;51.938;7.626;2022-07-10T15:24:25;16.95;;;7.80;;
40781;SDS011;26493;51.938;7.626;2022-07-10T15:26:51;14.18;;;7.70;;